createdAt,value
2023-12-08T00:00:37.605Z,1.60
2023-12-08T00:03:05.552Z,1.60
2023-12-08T00:05:33.461Z,1.60
2023-12-08T00:08:01.425Z,1.60
2023-12-08T00:10:29.299Z,1.60
2023-12-08T00:12:57.233Z,1.60
2023-12-08T00:15:26.432Z,1.60
2023-12-08T00:17:54.691Z,1.60
2023-12-08T00:20:22.656Z,1.70
2023-12-08T00:22:51.262Z,1.80
2023-12-08T00:25:19.237Z,1.70
2023-12-08T00:27:47.106Z,1.80
2023-12-08T00:30:15.402Z,1.80
2023-12-08T00:32:44.751Z,1.70
2023-12-08T00:35:12.768Z,1.80
2023-12-08T00:37:40.640Z,1.80
2023-12-08T00:40:09.469Z,1.80
2023-12-08T00:42:37.328Z,1.80
2023-12-08T00:45:05.928Z,1.80
2023-12-08T00:47:33.989Z,1.80
2023-12-08T00:50:03.518Z,1.80
2023-12-08T00:52:31.393Z,1.90
2023-12-08T00:54:59.240Z,1.90
2023-12-08T00:57:27.669Z,1.90
2023-12-08T00:59:56.383Z,1.90
2023-12-08T01:02:24.266Z,1.90
2023-12-08T01:04:52.144Z,2.00
2023-12-08T01:07:21.432Z,1.90
2023-12-08T01:09:49.284Z,1.90
2023-12-08T01:12:17.379Z,1.90
2023-12-08T01:14:45.319Z,1.90
2023-12-08T01:17:13.265Z,1.90
2023-12-08T01:19:41.171Z,1.90
2023-12-08T01:22:09.100Z,2.00
2023-12-08T01:24:39.136Z,2.00
2023-12-08T01:27:07.065Z,2.00
2023-12-08T01:29:34.946Z,2.00
2023-12-08T01:32:03.232Z,2.00
2023-12-08T01:34:31.085Z,1.90
2023-12-08T01:36:59.036Z,1.90
2023-12-08T01:39:27.087Z,1.90
2023-12-08T01:41:56.318Z,1.90
2023-12-08T01:44:24.222Z,1.90
2023-12-08T01:46:53.673Z,1.90
2023-12-08T01:49:22.178Z,1.90
2023-12-08T01:51:51.736Z,1.80
2023-12-08T01:54:19.764Z,1.90
2023-12-08T01:56:47.850Z,1.90
2023-12-08T01:59:17.274Z,1.90
2023-12-08T02:01:45.466Z,2.00
2023-12-08T02:04:13.383Z,1.90
2023-12-08T02:06:41.274Z,1.90
2023-12-08T02:09:10.961Z,1.80
2023-12-08T02:11:39.274Z,1.90
2023-12-08T02:14:07.541Z,1.80
2023-12-08T02:16:44.048Z,1.90
2023-12-08T02:19:15.399Z,1.90
2023-12-08T02:21:44.453Z,1.90
2023-12-08T02:24:13.747Z,2.00
2023-12-08T02:26:41.741Z,2.00
2023-12-08T02:29:10.854Z,2.10
2023-12-08T02:31:44.873Z,2.10
2023-12-08T02:34:15.819Z,2.10
2023-12-08T02:36:45.492Z,2.10
2023-12-08T02:39:17.169Z,2.00
2023-12-08T02:41:46.041Z,2.00
2023-12-08T02:44:13.896Z,2.00
2023-12-08T02:46:42.033Z,2.10
2023-12-08T02:49:10.072Z,2.10
2023-12-08T02:51:38.037Z,2.10
2023-12-08T02:54:06.020Z,2.00
2023-12-08T02:56:35.291Z,2.10
2023-12-08T02:59:03.164Z,2.20
2023-12-08T03:01:31.021Z,2.10
2023-12-08T03:03:59.086Z,2.20
2023-12-08T03:06:26.962Z,2.20
2023-12-08T03:08:55.334Z,2.20
2023-12-08T03:11:23.240Z,2.20
2023-12-08T03:13:52.420Z,2.20
2023-12-08T03:16:20.261Z,2.20
2023-12-08T03:18:48.336Z,2.20
2023-12-08T03:21:23.374Z,2.20
2023-12-08T03:23:51.397Z,2.20
2023-12-08T03:26:20.581Z,2.20
2023-12-08T03:28:48.520Z,2.20
2023-12-08T03:31:28.659Z,2.10
2023-12-08T03:33:56.876Z,2.10
2023-12-08T03:36:25.049Z,2.10
2023-12-08T03:38:52.952Z,2.10
2023-12-08T03:41:20.810Z,2.20
2023-12-08T03:43:48.758Z,2.20
2023-12-08T03:46:16.659Z,2.20
2023-12-08T03:48:46.691Z,2.30
2023-12-08T03:51:14.957Z,2.20
2023-12-08T03:53:42.874Z,2.20
2023-12-08T03:56:11.134Z,2.20
2023-12-08T03:58:38.956Z,2.20
2023-12-08T04:01:07.415Z,2.30
2023-12-08T04:03:35.638Z,2.20
2023-12-08T04:06:05.164Z,2.20
2023-12-08T04:08:33.158Z,2.20
2023-12-08T04:11:01.013Z,2.20
2023-12-08T04:13:28.858Z,2.20
2023-12-08T04:15:56.741Z,2.20
2023-12-08T04:18:24.694Z,2.30
2023-12-08T04:20:52.657Z,2.30
2023-12-08T04:23:21.930Z,2.30
2023-12-08T04:25:49.830Z,2.20
2023-12-08T04:28:17.683Z,2.20
2023-12-08T04:30:45.626Z,2.20
2023-12-08T04:33:13.855Z,2.20
2023-12-08T04:35:41.765Z,2.20
2023-12-08T04:38:09.657Z,2.20
2023-12-08T04:40:38.851Z,2.30
2023-12-08T04:43:06.717Z,2.30
2023-12-08T04:45:34.607Z,2.20
2023-12-08T04:48:02.623Z,2.30
2023-12-08T04:50:30.503Z,2.30
2023-12-08T04:52:58.585Z,2.20
2023-12-08T04:55:26.693Z,2.20
2023-12-08T04:57:55.923Z,2.20
2023-12-08T05:00:23.890Z,2.20
2023-12-08T05:02:51.812Z,2.20
2023-12-08T05:05:19.876Z,2.20
2023-12-08T05:07:47.826Z,2.10
2023-12-08T05:10:15.690Z,2.10
2023-12-08T05:12:43.541Z,2.10
2023-12-08T05:15:13.199Z,2.10
2023-12-08T05:17:41.305Z,2.00
2023-12-08T05:20:12.754Z,1.90
2023-12-08T05:22:40.745Z,2.00
2023-12-08T05:25:09.537Z,2.00
2023-12-08T05:27:37.604Z,2.00
2023-12-08T05:30:06.512Z,2.00
2023-12-08T05:32:35.884Z,2.00
2023-12-08T05:35:04.035Z,1.90
2023-12-08T05:37:31.907Z,2.00
2023-12-08T05:39:59.779Z,1.90
2023-12-08T05:42:27.664Z,1.90
2023-12-08T05:44:55.545Z,1.80
2023-12-08T05:47:23.434Z,1.90
2023-12-08T05:49:52.702Z,1.80
2023-12-08T05:52:20.657Z,1.90
2023-12-08T05:54:48.528Z,1.80
2023-12-08T05:57:16.733Z,1.80
2023-12-08T05:59:44.693Z,1.80
2023-12-08T06:02:12.583Z,1.80
2023-12-08T06:04:40.630Z,1.80
2023-12-08T06:07:09.987Z,1.70
2023-12-08T06:09:37.938Z,1.80
2023-12-08T06:12:06.634Z,1.70
2023-12-08T06:14:34.663Z,1.70
2023-12-08T06:17:02.792Z,1.80
2023-12-08T06:19:30.959Z,1.80
2023-12-08T06:21:58.899Z,1.80
2023-12-08T06:24:28.140Z,1.70
2023-12-08T06:26:56.097Z,1.70
2023-12-08T06:29:24.001Z,1.80
2023-12-08T06:31:51.868Z,1.80
2023-12-08T06:34:20.179Z,1.90
2023-12-08T06:36:49.137Z,1.80
2023-12-08T06:39:17.765Z,1.80
2023-12-08T06:41:47.123Z,1.80
2023-12-08T06:44:15.107Z,1.80
2023-12-08T06:46:43.781Z,1.80
2023-12-08T06:49:11.883Z,1.80
2023-12-08T06:51:39.891Z,1.80
2023-12-08T06:54:07.785Z,1.80
2023-12-08T06:56:36.553Z,1.70
2023-12-08T06:59:06.006Z,1.60
2023-12-08T07:01:33.948Z,1.60
2023-12-08T07:04:01.842Z,1.60
2023-12-08T07:06:29.715Z,1.50
2023-12-08T07:08:57.695Z,1.60
2023-12-08T07:11:25.704Z,1.50
2023-12-08T07:13:53.585Z,1.50
2023-12-08T07:16:22.795Z,1.50
2023-12-08T07:18:50.805Z,1.50
2023-12-08T07:21:18.764Z,1.60
2023-12-08T07:23:46.666Z,1.60
2023-12-08T07:26:15.243Z,1.50
2023-12-08T07:28:43.751Z,1.50
2023-12-08T07:31:13.232Z,1.50
2023-12-08T07:33:42.756Z,1.50
2023-12-08T07:36:11.398Z,1.40
2023-12-08T07:38:39.308Z,1.50
2023-12-08T07:41:08.380Z,1.40
2023-12-08T07:43:36.713Z,1.30
2023-12-08T07:46:05.195Z,1.30
2023-12-08T07:48:33.407Z,1.40
2023-12-08T07:51:02.702Z,1.40
2023-12-08T07:53:31.047Z,1.40
2023-12-08T07:55:58.907Z,1.40
2023-12-08T07:58:27.458Z,1.40
2023-12-08T08:00:55.336Z,1.50
2023-12-08T08:03:23.375Z,1.40
2023-12-08T08:05:51.429Z,1.50
2023-12-08T08:08:20.676Z,1.50
2023-12-08T08:10:48.529Z,1.50
2023-12-08T08:13:16.725Z,1.60
2023-12-08T08:15:44.604Z,1.60
2023-12-08T08:18:12.572Z,1.60
2023-12-08T08:20:40.504Z,1.60
2023-12-08T08:23:08.609Z,1.60
2023-12-08T08:25:37.922Z,1.60
2023-12-08T08:28:06.022Z,1.50
2023-12-08T08:30:34.464Z,1.50
2023-12-08T08:33:02.705Z,1.50
2023-12-08T08:35:30.797Z,1.50
2023-12-08T08:37:59.264Z,1.40
2023-12-08T08:40:27.335Z,1.40
2023-12-08T08:42:57.076Z,1.40
2023-12-08T08:45:25.082Z,1.40
2023-12-08T08:47:53.140Z,1.50
2023-12-08T08:50:22.334Z,1.50
2023-12-08T08:52:50.319Z,1.60
2023-12-08T08:55:18.567Z,1.60
2023-12-08T08:57:47.171Z,1.60
2023-12-08T09:00:19.280Z,1.60
2023-12-08T09:02:52.630Z,1.70
2023-12-08T09:05:20.662Z,1.70
2023-12-08T09:07:48.638Z,1.70
2023-12-08T09:10:17.289Z,1.80
2023-12-08T09:12:45.997Z,1.80
2023-12-08T09:15:14.586Z,1.80
2023-12-08T09:17:44.291Z,1.70
2023-12-08T09:20:15.415Z,1.70
2023-12-08T09:22:43.735Z,1.70
2023-12-08T09:25:12.371Z,1.70
2023-12-08T09:27:40.562Z,1.70
2023-12-08T09:30:09.884Z,1.80
2023-12-08T09:32:37.867Z,1.80
2023-12-08T09:35:07.670Z,1.70
2023-12-08T09:37:37.786Z,1.70
2023-12-08T09:40:09.357Z,1.80
2023-12-08T09:42:41.320Z,1.80
2023-12-08T09:45:11.959Z,1.90
2023-12-08T09:47:42.629Z,1.80
2023-12-08T09:50:14.724Z,1.80
2023-12-08T09:52:44.749Z,1.80
2023-12-08T09:55:13.371Z,1.70
2023-12-08T09:57:44.944Z,1.70
2023-12-08T10:00:14.874Z,1.80
2023-12-08T10:02:43.783Z,1.80
2023-12-08T10:05:13.480Z,1.80
2023-12-08T10:07:44.667Z,1.80
2023-12-08T10:10:13.144Z,1.80
2023-12-08T10:12:41.751Z,1.80
2023-12-08T10:15:12.080Z,1.80
2023-12-08T10:17:49.894Z,1.90
2023-12-08T10:20:20.872Z,1.90
2023-12-08T10:22:50.119Z,1.90
2023-12-08T10:25:19.217Z,2.00
2023-12-08T10:27:48.377Z,2.10
2023-12-08T10:30:16.910Z,2.20
2023-12-08T10:32:45.289Z,2.30
2023-12-08T10:35:13.873Z,2.30
2023-12-08T10:37:44.327Z,2.40
2023-12-08T10:40:14.230Z,2.50
2023-12-08T10:42:42.375Z,2.50
2023-12-08T10:45:12.037Z,2.40
2023-12-08T10:47:41.703Z,2.50
2023-12-08T10:50:11.312Z,2.60
2023-12-08T10:52:40.395Z,2.70
2023-12-08T10:55:11.217Z,2.70
2023-12-08T10:57:40.000Z,2.80
2023-12-08T11:00:18.159Z,2.90
2023-12-08T11:02:51.455Z,3.00
2023-12-08T11:05:24.748Z,3.10
2023-12-08T11:07:55.609Z,3.10
2023-12-08T11:10:26.786Z,3.10
2023-12-08T11:13:00.067Z,3.20
2023-12-08T11:15:33.131Z,3.30
2023-12-08T11:18:14.346Z,3.40
2023-12-08T11:20:43.863Z,3.40
2023-12-08T11:23:13.636Z,3.40
2023-12-08T11:25:48.658Z,3.40
2023-12-08T11:28:25.087Z,3.30
2023-12-08T11:30:57.425Z,3.40
2023-12-08T11:33:32.900Z,3.30
2023-12-08T11:36:09.163Z,3.20
2023-12-08T11:38:38.798Z,3.10
2023-12-08T11:41:14.438Z,3.20
2023-12-08T11:43:44.690Z,3.20
2023-12-08T11:46:13.539Z,3.10
2023-12-08T11:48:43.492Z,3.20
2023-12-08T11:51:13.194Z,3.20
2023-12-08T11:53:59.058Z,3.10
2023-12-08T11:56:42.836Z,3.10
2023-12-08T11:59:15.222Z,3.00
2023-12-08T12:01:43.865Z,3.00
2023-12-08T12:04:14.461Z,3.00
2023-12-08T12:06:44.782Z,3.00
2023-12-08T12:09:15.097Z,3.00
2023-12-08T12:11:45.991Z,3.00
2023-12-08T12:14:18.359Z,3.10
2023-12-08T12:16:48.229Z,3.10
2023-12-08T12:19:16.381Z,3.20
2023-12-08T12:21:45.356Z,3.30
2023-12-08T12:24:13.392Z,3.30
2023-12-08T12:26:41.376Z,3.30
2023-12-08T12:29:10.926Z,3.20
2023-12-08T12:31:39.191Z,3.20
2023-12-08T12:34:07.436Z,3.20
2023-12-08T12:36:35.575Z,3.20
2023-12-08T12:39:05.287Z,3.30
2023-12-08T12:41:33.570Z,3.30
2023-12-08T12:44:03.347Z,3.40
2023-12-08T12:46:32.778Z,3.40
2023-12-08T12:49:01.185Z,3.40
2023-12-08T12:51:38.265Z,3.50
2023-12-08T12:54:07.257Z,3.60
2023-12-08T12:56:36.420Z,3.50
2023-12-08T12:59:08.582Z,3.50
2023-12-08T13:01:38.845Z,3.60
2023-12-08T13:04:07.078Z,3.70
2023-12-08T13:06:37.595Z,3.60
2023-12-08T13:09:07.856Z,3.60
2023-12-08T13:11:36.087Z,3.60
2023-12-08T13:14:04.141Z,3.70
2023-12-08T13:16:32.182Z,3.60
2023-12-08T13:19:01.755Z,3.60
2023-12-08T13:21:30.037Z,3.60
2023-12-08T13:23:58.149Z,3.60
2023-12-08T13:26:26.361Z,3.70
2023-12-08T13:28:54.348Z,3.60
2023-12-08T13:31:22.672Z,3.60
2023-12-08T13:33:50.838Z,3.60
2023-12-08T13:36:20.253Z,3.60
2023-12-08T13:38:48.769Z,3.60
2023-12-08T13:41:16.757Z,3.60
2023-12-08T13:43:44.804Z,3.60
2023-12-08T13:46:12.777Z,3.60
2023-12-08T13:48:41.540Z,3.60
2023-12-08T13:51:28.415Z,3.60
2023-12-08T13:53:58.892Z,3.60
2023-12-08T13:56:27.140Z,3.60
2023-12-08T13:58:55.503Z,3.70
2023-12-08T14:01:23.548Z,3.70
2023-12-08T14:03:51.732Z,3.80
2023-12-08T14:06:20.858Z,3.70
2023-12-08T14:08:48.988Z,3.80
2023-12-08T14:11:18.417Z,3.70
2023-12-08T14:13:46.355Z,3.70
2023-12-08T14:16:14.521Z,3.60
2023-12-08T14:18:42.730Z,3.60
2023-12-08T14:21:12.387Z,3.50
2023-12-08T14:23:43.327Z,3.50
2023-12-08T14:26:11.866Z,3.50
2023-12-08T14:28:41.304Z,3.50
2023-12-08T14:31:09.350Z,3.50
2023-12-08T14:33:37.721Z,3.50
2023-12-08T14:36:07.104Z,3.50
2023-12-08T14:38:35.297Z,3.60
2023-12-08T14:41:04.031Z,3.60
2023-12-08T14:43:32.194Z,3.60
2023-12-08T14:46:04.272Z,3.60
2023-12-08T14:48:33.623Z,3.60
2023-12-08T14:51:01.892Z,3.60
2023-12-08T14:53:30.020Z,3.60
2023-12-08T14:55:59.764Z,3.60
2023-12-08T14:58:28.476Z,3.60
2023-12-08T15:00:56.505Z,3.70
2023-12-08T15:03:26.190Z,3.70
2023-12-08T15:05:54.580Z,3.70
2023-12-08T15:08:25.069Z,3.80
2023-12-08T15:10:53.795Z,3.80
2023-12-08T15:13:21.758Z,3.70
2023-12-08T15:15:49.904Z,3.80
2023-12-08T15:18:18.018Z,3.80
2023-12-08T15:20:51.579Z,3.80
2023-12-08T15:23:21.529Z,3.90
2023-12-08T15:25:49.995Z,3.90
2023-12-08T15:28:18.027Z,3.90
2023-12-08T15:30:47.059Z,4.00
2023-12-08T15:33:15.473Z,4.10
2023-12-08T15:35:43.673Z,4.10
2023-12-08T15:38:13.228Z,4.20
2023-12-08T15:40:41.193Z,4.20
2023-12-08T15:43:09.314Z,4.10
2023-12-08T15:45:37.426Z,4.10
2023-12-08T15:48:06.088Z,4.00
2023-12-08T15:50:34.136Z,4.00
2023-12-08T15:53:02.107Z,4.00
2023-12-08T15:55:31.558Z,3.90
2023-12-08T15:57:59.691Z,3.90
2023-12-08T16:00:27.889Z,3.80
2023-12-08T16:02:56.087Z,3.80
2023-12-08T16:05:24.287Z,3.80
2023-12-08T16:07:52.385Z,3.80
2023-12-08T16:10:20.478Z,3.80
2023-12-08T16:12:50.913Z,3.70
2023-12-08T16:15:19.176Z,3.70
2023-12-08T16:17:47.268Z,3.70
2023-12-08T16:20:15.367Z,3.70
2023-12-08T16:22:44.211Z,3.70
2023-12-08T16:25:12.399Z,3.70
2023-12-08T16:27:40.403Z,3.70
2023-12-08T16:30:11.017Z,3.70
2023-12-08T16:32:42.264Z,3.80
2023-12-08T16:35:14.373Z,3.80
2023-12-08T16:37:42.570Z,3.90
2023-12-08T16:40:12.994Z,3.90
2023-12-08T16:42:41.416Z,3.80
2023-12-08T16:45:11.547Z,3.80
2023-12-08T16:47:39.734Z,3.80
2023-12-08T16:50:09.142Z,3.70
2023-12-08T16:52:37.260Z,3.60
2023-12-08T16:55:07.114Z,3.60
2023-12-08T16:57:35.111Z,3.60
2023-12-08T17:00:04.869Z,3.60
2023-12-08T17:02:34.180Z,3.60
2023-12-08T17:05:02.191Z,3.70
2023-12-08T17:07:30.679Z,3.70
2023-12-08T17:09:58.657Z,3.70
2023-12-08T17:12:26.904Z,3.70
2023-12-08T17:14:54.977Z,3.70
2023-12-08T17:17:23.093Z,3.70
2023-12-08T17:19:52.645Z,3.60
2023-12-08T17:22:20.647Z,3.60
2023-12-08T17:24:48.837Z,3.60
2023-12-08T17:27:16.810Z,3.60
2023-12-08T17:29:44.860Z,3.60
2023-12-08T17:32:13.301Z,3.50
2023-12-08T17:34:41.497Z,3.60
2023-12-08T17:37:11.014Z,3.60
2023-12-08T17:39:38.976Z,3.50
2023-12-08T17:42:07.214Z,3.50
2023-12-08T17:44:36.034Z,3.50
2023-12-08T17:47:04.277Z,3.50
2023-12-08T17:49:32.577Z,3.60
2023-12-08T17:52:00.773Z,3.60
2023-12-08T17:54:30.622Z,3.60
2023-12-08T17:56:59.138Z,3.70
2023-12-08T17:59:27.244Z,3.70
2023-12-08T18:01:55.391Z,3.70
2023-12-08T18:04:23.527Z,3.80
2023-12-08T18:06:51.644Z,3.80
2023-12-08T18:09:19.886Z,3.90
2023-12-08T18:11:49.308Z,3.80
2023-12-08T18:14:17.429Z,3.80
2023-12-08T18:16:49.275Z,3.80
2023-12-08T18:19:19.052Z,3.90
2023-12-08T18:21:47.115Z,3.90
2023-12-08T18:24:15.146Z,3.90
2023-12-08T18:26:43.544Z,3.90
2023-12-08T18:29:13.023Z,4.00
2023-12-08T18:31:41.094Z,4.10
2023-12-08T18:34:09.398Z,4.20
2023-12-08T18:36:38.037Z,4.30
2023-12-08T18:39:06.917Z,4.40
2023-12-08T18:41:35.889Z,4.40
2023-12-08T18:44:03.891Z,4.50
2023-12-08T18:46:34.313Z,4.50
2023-12-08T18:49:03.266Z,4.60
2023-12-08T18:51:31.986Z,4.60
2023-12-08T18:54:00.360Z,4.60
2023-12-08T18:56:28.870Z,4.60
2023-12-08T18:58:56.948Z,4.50
2023-12-08T19:01:25.517Z,4.60
2023-12-08T19:03:55.008Z,4.50
2023-12-08T19:06:23.175Z,4.40
2023-12-08T19:08:51.314Z,4.40
2023-12-08T19:11:20.916Z,4.40
2023-12-08T19:13:48.884Z,4.40
2023-12-08T19:16:17.031Z,4.40
2023-12-08T19:18:45.216Z,4.50
2023-12-08T19:21:14.765Z,4.60
2023-12-08T19:23:43.450Z,4.60
2023-12-08T19:26:11.571Z,4.70
2023-12-08T19:28:40.384Z,4.60
2023-12-08T19:31:08.568Z,4.60
2023-12-08T19:33:36.764Z,4.60
2023-12-08T19:36:05.709Z,4.60
2023-12-08T19:38:35.134Z,4.70
2023-12-08T19:41:03.780Z,4.60
2023-12-08T19:43:31.794Z,4.50
2023-12-08T19:46:00.234Z,4.50
2023-12-08T19:48:28.756Z,4.40
2023-12-08T19:50:57.212Z,4.40
2023-12-08T19:53:25.264Z,4.40
2023-12-08T19:55:54.570Z,4.40
2023-12-08T19:58:22.544Z,4.40
2023-12-08T20:00:50.585Z,4.50
2023-12-08T20:03:18.644Z,4.50
2023-12-08T20:05:46.849Z,4.50
2023-12-08T20:08:15.223Z,4.50
2023-12-08T20:10:43.223Z,4.50
2023-12-08T20:13:12.563Z,4.60
2023-12-08T20:15:43.711Z,4.50
2023-12-08T20:18:12.120Z,4.60
2023-12-08T20:20:40.457Z,4.60
2023-12-08T20:23:08.324Z,4.60
2023-12-08T20:25:37.165Z,4.50
2023-12-08T20:28:05.330Z,4.40
2023-12-08T20:30:35.381Z,4.40
2023-12-08T20:33:03.580Z,4.40
2023-12-08T20:35:31.599Z,4.40
2023-12-08T20:37:59.449Z,4.40
2023-12-08T20:40:27.269Z,4.40
2023-12-08T20:42:55.122Z,4.30
2023-12-08T20:45:23.110Z,4.20
2023-12-08T20:47:52.455Z,4.10
2023-12-08T20:50:20.410Z,4.10
2023-12-08T20:52:48.288Z,4.10
2023-12-08T20:55:16.288Z,4.10
2023-12-08T20:57:44.296Z,4.10
2023-12-08T21:00:12.782Z,4.20
2023-12-08T21:02:40.654Z,4.20
2023-12-08T21:05:10.288Z,4.30
2023-12-08T21:07:38.200Z,4.40
2023-12-08T21:10:07.855Z,4.40
2023-12-08T21:12:35.762Z,4.50
2023-12-08T21:15:04.503Z,4.50
2023-12-08T21:17:32.427Z,4.60
2023-12-08T21:20:00.567Z,4.60
2023-12-08T21:22:29.887Z,4.70
2023-12-08T21:24:57.754Z,4.80
2023-12-08T21:27:25.878Z,4.80
2023-12-08T21:29:55.155Z,4.90
2023-12-08T21:32:23.709Z,4.90
2023-12-08T21:34:52.400Z,5.00
2023-12-08T21:37:20.880Z,5.00
2023-12-08T21:39:50.305Z,5.00
2023-12-08T21:42:18.286Z,5.00
2023-12-08T21:44:46.153Z,5.10
2023-12-08T21:47:14.669Z,5.10
2023-12-08T21:49:42.713Z,5.10
2023-12-08T21:52:10.650Z,5.10
2023-12-08T21:54:38.536Z,5.00
2023-12-08T21:57:07.927Z,5.00
2023-12-08T21:59:35.954Z,5.00
2023-12-08T22:02:03.802Z,5.00
2023-12-08T22:04:31.699Z,5.00
2023-12-08T22:07:00.573Z,5.10
2023-12-08T22:09:28.481Z,5.10
2023-12-08T22:11:56.464Z,5.00
2023-12-08T22:14:25.745Z,4.90
2023-12-08T22:16:53.680Z,4.90
2023-12-08T22:19:21.734Z,4.90
2023-12-08T22:21:49.734Z,4.80
2023-12-08T22:24:17.590Z,4.80
2023-12-08T22:26:45.494Z,4.80
2023-12-08T22:29:13.673Z,4.80
2023-12-08T22:31:42.905Z,4.80
2023-12-08T22:34:11.291Z,4.80
2023-12-08T22:36:39.541Z,4.90
2023-12-08T22:39:07.405Z,4.90
2023-12-08T22:41:35.280Z,5.00
2023-12-08T22:44:03.299Z,5.00
2023-12-08T22:46:31.153Z,5.10
2023-12-08T22:49:00.458Z,5.10
2023-12-08T22:51:38.424Z,5.10
2023-12-08T22:54:16.361Z,5.10
2023-12-08T22:56:44.617Z,5.10
2023-12-08T22:59:12.470Z,5.10
2023-12-08T23:01:41.119Z,5.00
2023-12-08T23:04:10.712Z,4.90
2023-12-08T23:06:39.594Z,5.00
2023-12-08T23:09:09.578Z,5.00
2023-12-08T23:11:37.649Z,5.00
2023-12-08T23:14:05.725Z,5.40
2023-12-08T23:16:33.774Z,5.60
2023-12-08T23:19:01.783Z,5.90
2023-12-08T23:21:31.058Z,6.10
2023-12-08T23:23:58.998Z,6.30
2023-12-08T23:26:26.856Z,6.40
2023-12-08T23:28:54.902Z,6.50
2023-12-08T23:31:22.851Z,6.50
2023-12-08T23:33:51.004Z,6.60
2023-12-08T23:36:19.009Z,6.50
2023-12-08T23:38:48.602Z,6.60
2023-12-08T23:41:16.583Z,6.60
2023-12-08T23:43:44.470Z,6.60
2023-12-08T23:46:12.410Z,6.70
2023-12-08T23:48:40.418Z,6.60
2023-12-08T23:51:08.682Z,6.50
2023-12-08T23:53:37.066Z,6.60
2023-12-08T23:56:06.945Z,6.60
2023-12-08T23:58:34.895Z,6.60
